Time;durP1;ratioP1;P1;durP2;ratioP2;P2;SDS_P1;SDS_P2;PMS_P1;PMS_P2;Temp;Humidity;BMP_temperature;BMP_pressure;BME280_temperature;BME280_humidity;BME280_pressure;Samples;Min_cycle;Max_cycle;Signal;HPM_P1;HPM_P2
2022/08/27 00:04:19;;;;;;;5.72;3.25;;;21.90;92.60;;;20.35;74.98;99507.25;10433011;27;96654;-85
2022/08/27 00:09:22;;;;;;;8.27;3.10;;;21.80;93.00;;;20.27;75.47;99505.78;10427897;27;96592;-85
2022/08/27 00:14:29;;;;;;;8.82;3.28;;;21.70;93.10;;;20.19;74.78;99508.91;10441013;27;96668;-85
2022/08/27 00:19:32;;;;;;;7.90;3.00;;;21.70;93.10;;;20.12;74.81;99510.97;10450494;27;97148;-85
2022/08/27 00:24:35;;;;;;;9.15;3.13;;;21.50;93.30;;;20.01;74.01;99518.88;10429527;27;97298;-85
2022/08/27 00:29:50;;;;;;;8.55;3.40;;;21.50;93.00;;;19.98;73.40;99519.41;10429765;27;98214;-85
2022/08/27 00:34:52;;;;;;;8.25;2.55;;;21.40;92.70;;;19.92;72.78;99512.28;10430462;27;98534;-85
2022/08/27 00:39:55;;;;;;;4.65;2.97;;;21.40;92.50;;;19.84;71.82;99517.25;10430286;27;96750;-85
2022/08/27 00:44:58;;;;;;;9.52;2.35;;;21.30;92.40;;;19.82;71.44;99520.19;10432865;27;97520;-85
2022/08/27 00:50:08;;;;;;;4.47;2.33;;;21.30;92.30;;;19.76;71.01;99524.69;10449367;27;96703;-85
2022/08/27 00:55:21;;;;;;;7.10;2.70;;;21.20;92.10;;;19.74;71.32;99518.72;10426236;27;96690;-84
2022/08/27 01:00:24;;;;;;;3.95;2.03;;;21.20;92.10;;;19.72;71.39;99520.03;10429510;27;98709;-85
2022/08/27 01:05:28;;;;;;;3.70;2.45;;;21.20;92.20;;;19.69;71.74;99531.31;10420796;27;97961;-84
2022/08/27 01:10:31;;;;;;;5.00;2.42;;;21.10;92.40;;;19.66;72.23;99532.59;10422159;27;97220;-85
2022/08/27 01:15:35;;;;;;;7.00;2.22;;;21.10;92.60;;;19.61;71.99;99537.06;10445769;27;96802;-85
2022/08/27 01:21:07;;;;;;;13.77;3.35;;;21.10;92.50;;;19.54;72.52;99542.59;10440598;27;98248;-85
2022/08/27 01:26:14;;;;;;;5.20;2.67;;;21.00;92.90;;;19.46;72.74;99533.03;10419559;27;98026;-85
2022/08/27 01:31:16;;;;;;;6.97;3.20;;;21.00;93.20;;;19.40;73.46;99538.56;10438940;27;98402;-85
2022/08/27 01:36:20;;;;;;;11.70;2.92;;;20.90;93.60;;;19.34;73.53;99537.66;10439726;27;97442;-85
2022/08/27 01:41:24;;;;;;;6.97;3.13;;;20.80;93.70;;;19.28;74.18;99535.94;10442307;27;98790;-83
2022/08/27 01:46:27;;;;;;;7.45;2.80;;;20.80;94.00;;;19.24;74.30;99548.22;10432535;27;97263;-85
2022/08/27 01:51:30;;;;;;;6.72;3.50;;;20.70;94.20;;;19.12;75.02;99539.38;10436125;27;97319;-85
2022/08/27 01:56:33;;;;;;;8.48;3.60;;;20.60;94.80;;;19.06;75.56;99543.03;10441173;27;96894;-84
2022/08/27 02:01:36;;;;;;;11.35;3.85;;;20.50;95.20;;;18.97;76.24;99543.41;10407963;28;96467;-85
2022/08/27 02:06:39;;;;;;;5.97;3.42;;;20.40;95.70;;;18.93;76.57;99538.75;10424581;28;96456;-85
2022/08/27 02:11:42;;;;;;;6.40;3.22;;;20.40;96.00;;;18.90;76.89;99553.50;10427339;27;96469;-84
2022/08/27 02:16:46;;;;;;;10.25;3.38;;;20.40;96.10;;;18.85;77.63;99545.31;10406794;28;96614;-85
2022/08/27 02:21:58;;;;;;;4.78;3.22;;;20.30;96.40;;;18.78;77.75;99541.94;10407285;28;96606;-84
2022/08/27 02:27:01;;;;;;;4.22;3.17;;;20.30;96.80;;;18.70;78.13;99534.22;10452790;27;96663;-84
2022/08/27 02:32:05;;;;;;;8.20;3.60;;;20.20;97.20;;;18.66;78.38;99539.25;10465141;27;96808;-84
2022/08/27 02:37:08;;;;;;;9.18;3.60;;;20.10;97.70;;;18.61;78.93;99535.63;10448302;27;96433;-84
2022/08/27 02:42:11;;;;;;;8.10;3.08;;;20.00;98.00;;;18.59;79.25;99526.94;10422821;27;96423;-85
2022/08/27 02:47:15;;;;;;;6.03;3.30;;;20.10;98.20;;;18.57;79.22;99529.06;10422687;28;96430;-84
2022/08/27 02:52:19;;;;;;;9.35;3.85;;;20.00;98.20;;;18.51;79.23;99525.44;10424575;27;96576;-84
2022/08/27 02:57:27;;;;;;;8.93;3.25;;;20.00;98.40;;;18.44;78.94;99533.66;10426729;27;98327;-85
2022/08/27 03:02:29;;;;;;;7.30;3.08;;;19.90;98.40;;;18.42;78.84;99526.88;10422326;28;96533;-84
2022/08/27 03:07:33;;;;;;;7.10;2.67;;;19.90;98.50;;;18.37;79.02;99529.44;10434788;27;96509;-84
2022/08/27 03:12:36;;;;;;;4.57;2.88;;;19.90;98.50;;;18.35;78.84;99526.16;10436473;27;98166;-85
2022/08/27 03:23:01;;;;;;;6.80;3.58;;;19.80;98.90;;;18.25;79.30;99532.13;10462078;27;96545;-85
2022/08/27 03:28:05;;;;;;;8.68;3.78;;;19.80;99.30;;;18.21;79.93;99536.34;10429984;27;97398;-84
2022/08/27 03:33:25;;;;;;;7.25;3.20;;;19.70;99.50;;;18.15;79.70;99534.59;10422367;27;97285;-84
2022/08/27 03:38:28;;;;;;;8.88;3.10;;;19.60;99.80;;;18.11;80.27;99536.09;10462256;27;96673;-85
2022/08/27 03:43:31;;;;;;;6.32;3.22;;;19.60;99.90;;;18.12;80.77;99533.19;10449522;27;98257;-85
2022/08/27 03:48:35;;;;;;;6.55;2.92;;;19.60;99.90;;;18.11;80.53;99531.56;10420043;27;97252;-85
2022/08/27 03:53:40;;;;;;;10.40;3.53;;;19.60;99.90;;;18.08;80.45;99531.19;10421033;27;98141;-85
2022/08/27 03:58:43;;;;;;;6.47;3.30;;;19.50;99.90;;;18.05;80.74;99527.13;10445333;27;98465;-85
2022/08/27 04:03:46;;;;;;;10.02;3.42;;;19.50;99.90;;;18.06;81.00;99530.63;10420221;27;99115;-85
2022/08/27 04:08:49;;;;;;;11.70;3.72;;;19.50;99.90;;;18.06;81.25;99533.31;10458582;27;96636;-85
2022/08/27 04:13:52;;;;;;;8.57;3.95;;;19.60;99.90;;;18.11;81.46;99536.09;10442959;27;96546;-85
2022/08/27 04:18:55;;;;;;;7.22;3.63;;;19.60;99.90;;;18.09;81.35;99532.84;10431720;27;97427;-85
2022/08/27 04:23:59;;;;;;;7.82;3.17;;;19.60;99.90;;;18.12;81.34;99537.75;10457335;27;96674;-85
2022/08/27 04:29:01;;;;;;;5.30;2.92;;;19.60;99.90;;;18.15;81.44;99537.28;10424887;27;98285;-85
2022/08/27 04:34:06;;;;;;;21.98;4.65;;;19.70;99.90;;;18.23;81.74;99536.91;10448000;27;97322;-85
2022/08/27 04:39:09;;;;;;;7.03;3.00;;;19.70;99.90;;;18.30;80.40;99544.91;10450043;27;96619;-85
2022/08/27 04:44:12;;;;;;;10.07;3.03;;;19.80;99.90;;;18.35;79.17;99542.28;10416848;27;96525;-85
2022/08/27 04:49:16;;;;;;;10.57;2.90;;;19.80;99.90;;;18.43;78.30;99539.28;10445401;27;98607;-84
2022/08/27 04:54:19;;;;;;;6.93;2.72;;;19.90;99.90;;;18.43;77.37;99537.41;10430451;27;96597;-85
2022/08/27 04:59:36;;;;;;;9.48;2.90;;;20.00;99.60;;;18.44;76.42;99538.22;10440259;27;97580;-84
2022/08/27 05:04:40;;;;;;;7.38;2.78;;;19.90;99.40;;;18.51;76.33;99544.28;10440537;27;96647;-85
2022/08/27 05:09:44;;;;;;;9.40;3.28;;;20.00;99.30;;;18.61;76.41;99551.78;10443717;27;96599;-84
2022/08/27 05:14:47;;;;;;;9.50;3.25;;;20.10;99.60;;;18.67;76.85;99556.25;10456847;27;97190;-84
2022/08/27 05:19:50;;;;;;;38.22;24.35;;;20.20;99.60;;;18.79;77.30;99559.72;10419395;27;98402;-84
2022/08/27 05:24:52;;;;;;;93.38;10.32;;;20.30;99.70;;;18.91;77.66;99557.84;10427238;27;98533;-84
2022/08/27 05:29:56;;;;;;;8.55;4.38;;;20.40;99.70;;;19.04;77.87;99555.91;10432510;27;97876;-84
2022/08/27 05:34:59;;;;;;;8.38;3.35;;;20.50;99.80;;;19.16;78.16;99549.44;10456930;27;96612;-84
2022/08/27 05:40:04;;;;;;;13.93;3.53;;;20.70;99.50;;;19.31;76.61;99557.00;10446580;27;96510;-84
2022/08/27 05:45:08;;;;;;;6.60;3.25;;;20.80;99.20;;;19.46;76.39;99549.19;10428835;27;98257;-84
2022/08/27 05:50:17;;;;;;;27.75;4.45;;;21.00;99.10;;;19.65;76.20;99540.94;10428657;27;96806;-84
2022/08/27 05:55:25;;;;;;;6.85;3.45;;;21.20;99.30;;;19.84;76.66;99536.13;10456965;27;97501;-84
2022/08/27 06:05:49;;;;;;;11.35;4.00;;;21.50;99.70;;;20.27;76.24;99544.38;10456115;27;96553;-84
2022/08/27 06:10:52;;;;;;;10.00;3.17;;;21.70;99.50;;;20.46;75.86;99550.34;10441294;27;98192;-84
2022/08/27 06:16:14;;;;;;;7.65;3.28;;;21.90;99.50;;;20.68;76.11;99549.56;10446498;27;97761;-84
2022/08/27 06:21:19;;;;;;;7.32;3.10;;;22.10;99.30;;;20.91;76.22;99554.72;10423644;27;96873;-84
2022/08/27 06:26:27;;;;;;;17.10;3.65;;;22.40;99.20;;;21.18;73.95;99549.38;10431167;27;96702;-84
2022/08/27 06:31:30;;;;;;;5.30;2.83;;;22.60;98.30;;;21.45;73.10;99549.41;10427384;27;97246;-84
2022/08/27 06:36:38;;;;;;;10.63;3.42;;;22.90;98.20;;;21.70;72.70;99556.16;10423691;27;96628;-84
2022/08/27 06:41:42;;;;;;;12.52;3.65;;;23.20;97.70;;;21.87;72.65;99551.44;10452288;27;97242;-84
2022/08/27 06:46:45;;;;;;;34.42;4.80;;;23.40;97.60;;;22.01;72.19;99554.50;10436349;27;96867;-84
2022/08/27 06:51:48;;;;;;;12.38;3.33;;;23.50;97.60;;;22.18;71.65;99557.94;10435060;27;97196;-84
2022/08/27 06:56:51;;;;;;;16.60;3.97;;;23.70;97.30;;;22.36;71.02;99570.22;10433166;27;96705;-84
2022/08/27 07:01:55;;;;;;;25.75;4.47;;;23.90;97.30;;;22.57;70.38;99566.59;10425158;27;96599;-84
2022/08/27 07:06:59;;;;;;;26.25;5.05;;;24.10;96.90;;;22.74;69.53;99571.03;10442935;27;96639;-84
2022/08/27 07:12:04;;;;;;;27.10;4.68;;;24.30;96.80;;;22.88;69.98;99566.78;10435479;27;96635;-83
2022/08/27 07:17:08;;;;;;;9.50;4.30;;;24.40;96.90;;;23.05;69.50;99580.13;10444114;27;96682;-83
2022/08/27 07:22:18;;;;;;;16.17;4.97;;;24.60;96.50;;;23.22;68.51;99583.47;10437870;27;98316;-81
2022/08/27 07:27:22;;;;;;;14.85;4.30;;;24.80;96.30;;;23.39;68.08;99588.63;10445736;27;98166;-82
2022/08/27 07:32:25;;;;;;;16.63;5.25;;;25.00;96.20;;;23.56;68.92;99597.38;10417015;28;97282;-82
2022/08/27 07:37:38;;;;;;;12.65;4.20;;;25.10;96.30;;;23.71;69.07;99592.00;10421399;27;96480;-82
2022/08/27 07:48:04;;;;;;;12.25;4.68;;;25.40;96.00;;;24.03;67.98;99586.34;10463991;27;96579;-83
2022/08/27 07:53:08;;;;;;;25.63;5.63;;;25.60;95.90;;;24.22;67.55;99583.06;10454983;27;96763;-83
2022/08/27 07:58:13;;;;;;;8.52;3.28;;;25.70;95.70;;;24.44;64.03;99588.25;10459902;27;96594;-83
2022/08/27 08:03:20;;;;;;;7.35;2.78;;;25.90;94.50;;;24.72;63.50;99581.41;10425302;27;97472;-83
2022/08/27 08:08:23;;;;;;;10.45;3.47;;;26.20;93.30;;;24.92;56.21;99577.81;10441077;27;96467;-83
2022/08/27 08:13:30;;;;;;;8.20;2.97;;;26.40;90.00;;;25.07;52.92;99584.03;10422890;27;97087;-84
2022/08/27 08:18:36;;;;;;;6.25;2.67;;;26.60;85.00;;;25.21;50.60;99581.53;10444083;27;96436;-83
2022/08/27 08:23:41;;;;;;;10.18;3.28;;;26.80;81.50;;;25.39;49.13;99587.41;10422139;27;96505;-83
2022/08/27 08:28:44;;;;;;;6.13;2.85;;;26.90;77.90;;;25.50;48.38;99578.13;10434350;27;96434;-83
2022/08/27 08:33:48;;;;;;;7.20;2.60;;;27.10;75.40;;;25.70;48.33;99582.59;10462795;27;96547;-83
2022/08/27 08:38:53;;;;;;;10.98;2.97;;;27.30;74.90;;;25.96;48.00;99581.34;10461173;27;96693;-83
2022/08/27 08:43:57;;;;;;;11.43;3.10;;;27.50;73.00;;;26.16;46.63;99574.94;10459884;27;96495;-83
2022/08/27 08:50:02;;;;;;;6.47;2.67;;;27.70;71.90;;;26.37;45.28;99576.34;10444783;27;96565;-83
2022/08/27 08:55:29;;;;;;;7.78;2.97;;;27.90;69.60;;;26.58;45.31;99576.19;10425833;27;97270;-83
2022/08/27 09:00:32;;;;;;;6.43;2.80;;;28.20;68.80;;;26.79;44.37;99566.69;10449112;27;97353;-83
2022/08/27 09:05:39;;;;;;;8.55;3.33;;;28.40;66.40;;;27.08;44.87;99563.91;10443141;27;96664;-83
2022/08/27 09:11:13;;;;;;;4.32;2.78;;;28.60;67.20;;;27.40;42.87;99559.66;10457382;27;96600;-83
2022/08/27 09:16:17;;;;;;;9.63;3.45;;;28.80;66.00;;;27.64;42.99;99554.13;10407457;27;96953;-82
2022/08/27 09:21:44;;;;;;;7.15;2.85;;;29.10;65.10;;;27.82;41.91;99553.31;10417800;28;96606;-83
2022/08/27 09:26:47;;;;;;;5.90;3.05;;;29.30;63.70;;;27.92;40.38;99549.63;10414340;27;96646;-83
2022/08/27 09:32:05;;;;;;;7.63;2.63;;;29.50;61.20;;;28.08;39.36;99548.28;10423444;27;96978;-83
2022/08/27 09:37:19;;;;;;;6.20;2.67;;;29.60;60.40;;;28.24;38.66;99540.59;10423293;28;96812;-83
2022/08/27 09:42:45;;;;;;;6.70;2.80;;;29.80;59.10;;;28.39;39.03;99545.03;10408824;27;96878;-82
2022/08/27 09:48:09;;;;;;;8.95;2.78;;;30.00;58.60;;;28.49;39.80;99540.19;10465341;27;96516;-82
2022/08/27 09:53:39;;;;;;;7.65;2.65;;;30.10;59.40;;;28.64;39.64;99539.06;10427084;27;96484;-83
2022/08/27 09:58:42;;;;;;;7.38;2.67;;;30.20;58.20;;;28.77;39.84;99532.78;10448131;27;98107;-83
2022/08/27 10:03:45;;;;;;;3.75;2.38;;;30.40;59.20;;;28.92;40.30;99530.88;10467653;27;97483;-83
2022/08/27 10:08:56;;;;;;;4.63;2.60;;;30.50;59.40;;;29.10;39.40;99537.34;10455389;27;96813;-83
2022/08/27 10:14:29;;;;;;;6.47;2.40;;;30.70;58.90;;;29.18;38.76;99531.16;10428705;27;96836;-82
2022/08/27 10:20:17;;;;;;;10.30;3.00;;;30.80;58.00;;;29.40;39.15;99533.94;10425929;27;96747;-83
2022/08/27 10:25:57;;;;;;;7.78;2.30;;;30.90;57.80;;;29.65;38.26;99531.75;10464607;27;96597;-82
2022/08/27 10:31:23;;;;;;;;;;;31.20;57.50;;;29.81;37.09;99530.28;10463428;27;97637;-83
2022/08/27 10:36:53;;;;;;;5.35;2.63;;;31.40;57.00;;;29.99;36.66;99534.75;10427018;27;96537;-83
2022/08/27 10:42:25;;;;;;;5.88;2.25;;;31.60;55.70;;;30.25;35.57;99528.63;10426046;27;96629;-83
2022/08/27 10:47:51;;;;;;;4.85;2.45;;;32.00;54.70;;;30.47;35.03;99516.78;10441388;27;97220;-83
2022/08/27 10:53:04;;;;;;;5.82;2.70;;;32.20;53.90;;;30.65;34.56;99513.00;10422874;27;96609;-82
2022/08/27 10:58:38;;;;;;;7.15;2.60;;;32.30;53.00;;;30.90;34.81;99514.22;10427942;27;96554;-83
2022/08/27 11:03:53;;;;;;;7.50;2.53;;;32.50;53.60;;;31.05;34.79;99508.25;10443444;27;96556;-83
2022/08/27 11:09:21;;;;;;;5.32;2.53;;;32.70;53.30;;;31.17;32.91;99500.19;10432567;27;96663;-82
2022/08/27 11:14:57;;;;;;;7.05;2.30;;;32.90;52.50;;;31.44;33.60;99503.81;10419659;27;96472;-83
2022/08/27 11:20:28;;;;;;;5.38;2.13;;;33.10;51.60;;;31.80;33.28;99492.50;10435128;27;96507;-83
2022/08/27 11:25:49;;;;;;;8.52;2.20;;;33.30;51.10;;;31.99;31.78;99494.88;10430091;27;96623;-83
2022/08/27 11:31:07;;;;;;;5.75;2.20;;;33.40;49.90;;;32.13;31.26;99489.97;10421741;27;96587;-83
2022/08/27 11:36:19;;;;;;;5.83;2.87;;;33.70;49.70;;;31.96;31.50;99490.81;10421030;28;97254;-82
2022/08/27 11:41:53;;;;;;;6.97;2.60;;;33.50;49.30;;;32.06;32.13;99480.63;10434783;27;96636;-80
2022/08/27 11:47:23;;;;;;;8.68;2.42;;;33.60;50.10;;;32.27;31.83;99466.94;10461356;27;96521;-83
2022/08/27 11:52:36;;;;;;;4.70;2.30;;;33.80;49.90;;;32.51;31.88;99475.47;10456038;27;96608;-83
2022/08/27 11:57:40;;;;;;;11.32;2.90;;;34.00;50.00;;;32.59;30.91;99474.59;10448148;27;97241;-82
2022/08/27 12:02:55;;;;;;;8.27;2.25;;;34.20;48.60;;;32.70;29.56;99464.03;10448685;27;96633;-82
2022/08/27 12:07:58;;;;;;;5.05;2.28;;;34.40;47.90;;;32.78;30.34;99468.66;10419911;28;96478;-83
2022/08/27 12:13:26;;;;;;;5.50;2.33;;;34.60;47.90;;;32.96;29.93;99447.38;10419816;27;96515;-83
2022/08/27 12:18:48;;;;;;;6.97;2.63;;;34.80;47.20;;;33.13;30.91;99444.50;10412566;27;96641;-82
2022/08/27 12:24:20;;;;;;;6.95;2.10;;;34.90;47.80;;;33.32;29.42;99437.69;10462991;27;96745;-82
2022/08/27 12:29:39;;;;;;;6.25;2.10;;;35.20;47.60;;;33.55;30.45;99438.97;10419408;27;97019;-82
2022/08/27 12:35:04;;;;;;;7.93;2.28;;;35.50;47.60;;;33.59;29.81;99431.63;10419747;27;96707;-83
2022/08/27 12:40:17;;;;;;;8.73;2.45;;;35.70;46.90;;;33.49;27.89;99424.59;10419427;28;96544;-83
2022/08/27 12:45:24;;;;;;;3.83;2.17;;;35.70;45.50;;;33.56;28.75;99418.53;10419635;27;96817;-83
2022/08/27 12:50:29;;;;;;;7.50;2.30;;;35.70;45.70;;;33.84;29.43;99415.16;10424441;27;96643;-80
2022/08/27 12:55:58;;;;;;;10.95;2.60;;;35.80;46.40;;;33.75;28.42;99407.78;10405441;28;96657;-83
2022/08/27 13:01:27;;;;;;;8.20;2.70;;;35.60;45.70;;;33.80;28.41;99396.53;10401962;28;96585;-83
2022/08/27 13:06:34;;;;;;;7.97;2.58;;;35.60;45.70;;;33.74;29.02;99403.41;10425042;27;96616;-83
2022/08/27 13:11:48;;;;;;;6.97;2.90;;;35.40;45.90;;;33.54;29.59;99398.78;10426028;27;96591;-83
2022/08/27 13:16:59;;;;;;;7.50;2.55;;;35.20;46.60;;;33.31;29.61;99405.81;10426816;27;96539;-82
2022/08/27 13:22:05;;;;;;;9.68;2.50;;;34.90;46.30;;;33.09;29.69;99407.75;10424488;27;97432;-83
2022/08/27 13:27:08;;;;;;;5.47;2.13;;;34.60;46.50;;;32.99;29.79;99411.75;10427926;27;96749;-84
2022/08/27 13:32:13;;;;;;;29.30;4.43;;;34.50;45.70;;;32.81;28.35;99399.22;10462784;27;96827;-81
2022/08/27 13:37:43;;;;;;;8.75;3.05;;;34.40;45.40;;;32.86;30.74;99412.75;10467089;27;96457;-81
2022/08/27 13:42:47;;;;;;;5.28;2.88;;;34.30;46.90;;;32.82;29.58;99408.28;10409472;27;96655;-81
2022/08/27 13:47:52;;;;;;;8.20;2.50;;;34.30;46.30;;;32.93;29.94;99409.53;10465511;27;96628;-80
2022/08/27 13:58:33;;;;;;;6.32;2.58;;;34.30;46.30;;;32.93;29.92;99404.03;10437359;27;96861;-81
2022/08/27 14:03:48;;;;;;;11.77;2.33;;;34.30;46.80;;;32.95;30.45;99416.31;10465962;27;96564;-81
2022/08/27 14:08:51;;;;;;;16.35;2.40;;;34.30;47.20;;;32.90;29.20;99401.94;10440191;27;96605;-82
2022/08/27 14:13:56;;;;;;;10.18;2.13;;;34.30;46.30;;;33.00;30.08;99407.03;10422175;27;97202;-81
2022/08/27 14:19:27;;;;;;;11.30;2.55;;;34.40;46.40;;;33.02;29.02;99402.00;10464232;27;96519;-81
2022/08/27 14:24:34;;;;;;;33.00;3.90;;;34.50;46.40;;;32.93;28.61;99407.59;10462744;27;96694;-82
2022/08/27 14:29:37;;;;;;;14.20;2.80;;;34.60;45.30;;;32.93;28.88;99398.53;10441862;27;96535;-82
2022/08/27 14:34:40;;;;;;;6.20;2.33;;;34.60;45.60;;;32.89;29.18;99392.06;10444179;27;97325;-83
2022/08/27 14:39:43;;;;;;;13.30;3.03;;;34.60;45.10;;;32.88;28.98;99391.28;10423064;28;96522;-82
2022/08/27 14:44:48;;;;;;;6.53;2.90;;;34.60;45.20;;;33.05;29.97;99404.09;10406499;27;96506;-82
2022/08/27 14:49:51;;;;;;;8.07;2.70;;;34.60;46.30;;;32.97;29.40;99400.25;10406140;28;96457;-82
2022/08/27 14:54:54;;;;;;;14.35;3.17;;;34.60;46.10;;;33.07;31.71;99407.31;10426957;27;97279;-83
2022/08/27 14:59:56;;;;;;;12.07;2.72;;;34.60;47.60;;;33.16;30.92;99413.53;10443358;27;97259;-83
2022/08/27 15:04:59;;;;;;;5.30;2.38;;;34.60;47.20;;;33.35;30.88;99407.53;10442412;27;96478;-83
2022/08/27 15:10:13;;;;;;;21.88;3.63;;;34.80;47.00;;;33.41;29.44;99402.66;10406856;28;96493;-82
2022/08/27 15:15:17;;;;;;;20.33;3.45;;;35.00;46.30;;;33.16;29.29;99415.47;10442796;27;96674;-82
2022/08/27 15:20:20;;;;;;;10.02;2.90;;;34.80;45.60;;;33.10;29.45;99419.56;10447028;27;97259;-83
2022/08/27 15:25:24;;;;;;;9.18;2.90;;;34.70;45.90;;;33.11;30.33;99422.00;10462382;27;97359;-83
2022/08/27 15:30:28;;;;;;;7.15;2.60;;;34.70;47.00;;;33.32;30.37;99423.94;10446775;27;96656;-83
2022/08/27 15:35:32;;;;;;;15.48;2.90;;;34.80;47.20;;;33.45;30.62;99420.09;10420242;28;96709;-82
2022/08/27 15:40:35;;;;;;;14.10;3.35;;;35.00;46.70;;;33.47;29.57;99415.06;10421322;27;96744;-83
2022/08/27 15:45:38;;;;;;;5.97;2.65;;;35.10;46.30;;;33.26;31.03;99426.88;10443718;27;96771;-83
2022/08/27 15:50:41;;;;;;;5.60;2.20;;;34.90;47.10;;;33.05;32.40;99436.28;10422446;27;96512;-84
2022/08/27 15:55:44;;;;;;;13.98;3.33;;;34.60;48.10;;;32.98;32.48;99425.81;10411126;27;96526;-83
2022/08/27 16:00:48;;;;;;;8.07;2.55;;;34.50;48.60;;;32.86;31.90;99428.47;10414968;27;97099;-83
2022/08/27 16:06:01;;;;;;;13.57;2.97;;;34.40;47.80;;;32.62;31.30;99427.16;10404408;28;96614;-83
2022/08/27 16:11:07;;;;;;;6.10;2.40;;;34.30;47.50;;;32.45;33.44;99430.06;10419541;27;96465;-83
2022/08/27 16:16:11;;;;;;;59.78;5.13;;;34.10;49.20;;;32.30;34.58;99427.81;10403937;27;96544;-83
2022/08/27 16:21:14;;;;;;;9.32;3.83;;;33.80;50.10;;;32.01;34.91;99423.91;10403307;28;96582;-83
2022/08/27 16:26:17;;;;;;;9.02;3.60;;;33.50;50.30;;;31.73;35.62;99419.91;10403396;28;96402;-83
2022/08/27 16:31:20;;;;;;;5.72;3.05;;;33.20;51.10;;;31.44;36.46;99424.19;10458353;27;97656;-83
2022/08/27 16:36:24;;;;;;;9.02;2.70;;;32.90;51.70;;;31.13;36.34;99436.13;10422312;27;96490;-84
2022/08/27 16:41:27;;;;;;;7.15;2.75;;;32.60;51.70;;;30.79;36.82;99433.34;10409437;28;96604;-83
2022/08/27 16:46:30;;;;;;;10.98;2.83;;;32.20;51.90;;;30.43;37.13;99433.56;10410666;27;96650;-84
2022/08/27 16:51:34;;;;;;;8.13;3.00;;;31.80;52.20;;;30.08;37.91;99436.16;10428171;27;96516;-84
2022/08/27 16:56:39;;;;;;;9.55;3.28;;;31.50;52.80;;;29.78;38.52;99430.38;10425414;28;96390;-84
2022/08/27 17:01:44;;;;;;;9.77;3.15;;;31.10;53.50;;;29.51;39.09;99436.78;10444674;27;96729;-83
2022/08/27 17:06:50;;;;;;;9.55;3.20;;;30.80;54.40;;;29.23;39.85;99438.00;10409984;28;96572;-83
2022/08/27 17:11:56;;;;;;;6.75;2.47;;;30.60;54.50;;;29.03;40.12;99452.97;10427344;27;96591;-84
2022/08/27 17:16:59;;;;;;;8.75;2.92;;;30.40;54.60;;;28.82;40.35;99469.00;10451350;27;96507;-83
2022/08/27 17:22:03;;;;;;;8.93;3.40;;;30.20;54.90;;;28.62;40.84;99472.16;10465768;27;96484;-84
2022/08/27 17:27:06;;;;;;;5.57;2.90;;;30.00;55.20;;;28.44;41.40;99471.97;10447991;27;96900;-84
2022/08/27 17:32:12;;;;;;;7.32;2.78;;;29.80;55.60;;;28.26;41.86;99489.22;10438174;27;98053;-84
2022/08/27 17:37:15;;;;;;;6.53;2.75;;;29.60;56.40;;;28.11;42.95;99489.50;10427288;27;98362;-85
2022/08/27 17:42:21;;;;;;;6.50;3.33;;;29.50;57.10;;;27.82;44.01;99490.53;10432684;27;97921;-84
2022/08/27 17:47:24;;;;;;;19.55;5.32;;;29.20;57.90;;;27.61;45.31;99508.34;10434238;27;98392;-84
2022/08/27 17:52:28;;;;;;;10.40;5.90;;;29.00;59.00;;;27.42;46.38;99524.72;10426040;27;97542;-85
2022/08/27 17:57:33;;;;;;;13.10;5.10;;;28.80;59.70;;;27.21;47.40;99530.47;10425322;27;96957;-84
2022/08/27 18:02:48;;;;;;;14.32;4.90;;;28.60;60.50;;;27.00;48.10;99531.81;10430612;27;98367;-84
2022/08/27 18:07:52;;;;;;;8.98;3.70;;;28.30;61.40;;;26.78;48.83;99531.53;10433381;27;98198;-84
2022/08/27 18:12:55;;;;;;;12.80;3.38;;;28.10;62.00;;;26.57;48.87;99537.25;10434902;27;96723;-84
2022/08/27 18:17:59;;;;;;;9.40;3.42;;;27.90;62.50;;;26.42;49.16;99543.66;10433100;27;96718;-84
2022/08/27 18:23:03;;;;;;;9.88;3.22;;;27.70;62.80;;;26.25;50.36;99548.69;10446393;27;97216;-85
2022/08/27 18:28:09;;;;;;;8.00;2.67;;;27.60;63.40;;;26.08;50.49;99557.28;10440222;27;96913;-85
2022/08/27 18:33:13;;;;;;;9.05;3.28;;;27.40;64.10;;;25.92;50.89;99552.28;10453106;27;98444;-85
2022/08/27 18:38:17;;;;;;;12.73;3.50;;;27.20;64.40;;;25.83;51.68;99566.47;10433673;27;96595;-85
2022/08/27 18:43:31;;;;;;;8.60;3.67;;;27.10;65.20;;;25.70;52.27;99572.53;10436775;27;96628;-85
2022/08/27 18:48:35;;;;;;;11.75;3.85;;;27.00;65.40;;;25.60;53.15;99572.59;10445206;27;98367;-85
2022/08/27 18:53:41;;;;;;;18.83;9.15;;;26.90;66.00;;;25.45;53.57;99578.94;10426187;27;98085;-85
2022/08/27 18:58:45;;;;;;;13.52;10.10;;;26.70;66.90;;;25.33;54.46;99576.56;10415256;27;97986;-85
2022/08/27 19:03:52;;;;;;;9.93;4.75;;;26.60;67.40;;;25.20;55.11;99585.34;10434076;27;97555;-85
2022/08/27 19:08:55;;;;;;;7.15;3.92;;;26.50;67.90;;;25.05;55.55;99579.97;10438903;27;96849;-85
2022/08/27 19:13:58;;;;;;;11.60;3.80;;;26.40;68.50;;;24.90;56.14;99577.28;10430326;27;96788;-85
2022/08/27 19:19:03;;;;;;;9.60;3.58;;;26.20;68.90;;;24.78;56.51;99567.53;10429113;27;96634;-85
2022/08/27 19:24:06;;;;;;;8.18;3.60;;;26.10;69.30;;;24.68;57.13;99575.72;10450415;27;96696;-85
2022/08/27 19:29:10;;;;;;;8.68;3.55;;;26.00;69.90;;;24.58;57.15;99558.63;10447610;27;98234;-85
2022/08/27 19:34:13;;;;;;;8.55;3.83;;;25.90;70.10;;;24.51;57.67;99567.84;10436733;27;98613;-87
2022/08/27 19:39:16;;;;;;;7.97;3.15;;;25.80;70.90;;;24.40;57.96;99554.56;10423911;27;97548;-87
2022/08/27 19:44:19;;;;;;;8.73;3.58;;;25.70;71.50;;;24.26;58.81;99555.13;10426153;27;98513;-86
2022/08/27 19:49:23;;;;;;;9.48;3.55;;;25.60;71.90;;;24.15;59.04;99567.06;10413011;27;96658;-86
2022/08/27 19:54:27;;;;;;;6.55;3.50;;;25.40;72.60;;;24.07;59.63;99562.19;10456323;27;96758;-87
2022/08/27 19:59:35;;;;;;;5.93;3.30;;;25.40;72.90;;;23.99;59.64;99560.84;10420978;28;97270;-86
2022/08/27 20:04:39;;;;;;;6.00;2.97;;;25.30;73.10;;;23.91;59.83;99568.69;10432749;27;96580;-87
2022/08/27 20:10:03;;;;;;;7.28;3.00;;;25.20;73.40;;;23.81;60.10;99564.09;10419037;27;96834;-86
2022/08/27 20:15:11;;;;;;;10.20;3.30;;;25.10;73.40;;;23.80;60.36;99567.06;10442100;27;96657;-86
2022/08/27 20:20:21;;;;;;;9.18;3.30;;;25.10;73.80;;;23.71;60.41;99559.47;10424038;27;98207;-86
2022/08/27 20:25:25;;;;;;;8.73;3.10;;;25.00;73.90;;;23.67;60.94;99563.78;10435945;27;97090;-86
2022/08/27 20:30:29;;;;;;;8.20;3.10;;;25.00;74.40;;;23.58;61.08;99559.97;10444483;27;97391;-86
2022/08/27 20:35:32;;;;;;;7.35;3.70;;;24.90;75.10;;;23.49;62.00;99573.22;10451946;27;96570;-87
2022/08/27 20:40:35;;;;;;;7.15;3.30;;;24.80;75.90;;;23.40;62.44;99582.97;10421974;27;98635;-87
2022/08/27 20:45:39;;;;;;;7.50;3.30;;;24.70;76.50;;;23.32;63.09;99588.09;10432799;27;97288;-87
2022/08/27 20:50:42;;;;;;;6.65;3.67;;;24.60;77.20;;;23.21;63.66;99598.06;10458071;27;96598;-86
2022/08/27 20:55:45;;;;;;;6.70;3.53;;;24.50;77.80;;;23.13;63.77;99591.28;10439382;27;96701;-87
2022/08/27 21:00:52;;;;;;;7.43;3.70;;;24.40;78.00;;;23.03;64.00;99591.25;10454258;27;96818;-86
2022/08/27 21:05:55;;;;;;;10.70;3.95;;;24.30;78.50;;;22.97;64.61;99592.31;10418288;27;97528;-87
2022/08/27 21:10:58;;;;;;;9.77;3.55;;;24.20;79.00;;;22.90;64.88;99597.13;10421485;27;98418;-87
2022/08/27 21:16:02;;;;;;;7.65;3.75;;;24.20;79.50;;;22.85;65.20;99597.91;10444315;27;96798;-86
2022/08/27 21:21:07;;;;;;;6.82;3.63;;;24.10;80.00;;;22.82;65.20;99600.31;10435550;27;96552;-87
2022/08/27 21:26:12;;;;;;;10.30;3.40;;;24.10;80.00;;;22.80;64.67;99602.47;10437437;27;96585;-86
2022/08/27 21:31:15;;;;;;;5.68;3.58;;;24.10;79.90;;;22.78;64.53;99605.44;10442873;27;97543;-86
2022/08/27 21:36:18;;;;;;;7.22;3.10;;;24.10;79.90;;;22.77;65.05;99611.09;10436172;27;96765;-86
2022/08/27 21:41:23;;;;;;;5.43;3.33;;;24.10;80.40;;;22.73;65.38;99605.41;10437984;27;97270;-87